sensor_id;sensor_type;location;lat;lon;timestamp;temperature;humidity
13464;DHT22;6804;48.774;9.174;2024-01-15T00:01:43;1.80;99.90
13464;DHT22;6804;48.774;9.174;2024-01-15T00:04:12;1.80;99.90
13464;DHT22;6804;48.774;9.174;2024-01-15T00:06:42;1.90;99.90
13464;DHT22;6804;48.774;9.174;2024-01-15T00:09:09;1.90;99.90
13464;DHT22;6804;48.774;9.174;2024-01-15T00:11:37;1.90;99.90
13464;DHT22;6804;48.774;9.174;2024-01-15T00:14:04;2.00;99.90
13464;DHT22;6804;48.774;9.174;2024-01-15T00:16:54;2.00;99.90
13464;DHT22;6804;48.774;9.174;2024-01-15T00:19:22;2.00;99.90
13464;DHT22;6804;48.774;9.174;2024-01-15T00:21:54;2.00;99.90
13464;DHT22;6804;48.774;9.174;2024-01-15T00:24:23;2.10;99.90
13464;DHT22;6804;48.774;9.174;2024-01-15T00:26:51;2.10;99.90
13464;DHT22;6804;48.774;9.174;2024-01-15T00:29:40;2.10;99.90
13464;DHT22;6804;48.774;9.174;2024-01-15T00:32:35;2.10;99.90
13464;DHT22;6804;48.774;9.174;2024-01-15T00:35:04;2.00;99.90
13464;DHT22;6804;48.774;9.174;2024-01-15T00:37:33;2.00;99.90
13464;DHT22;6804;48.774;9.174;2024-01-15T00:40:04;2.10;99.90
13464;DHT22;6804;48.774;9.174;2024-01-15T00:42:32;2.00;99.90
13464;DHT22;6804;48.774;9.174;2024-01-15T00:45:00;2.10;99.90
13464;DHT22;6804;48.774;9.174;2024-01-15T00:47:28;2.10;99.90
13464;DHT22;6804;48.774;9.174;2024-01-15T00:49:57;2.10;99.90
13464;DHT22;6804;48.774;9.174;2024-01-15T00:52:44;2.10;99.90
13464;DHT22;6804;48.774;9.174;2024-01-15T00:55:14;2.00;99.90
13464;DHT22;6804;48.774;9.174;2024-01-15T00:57:47;2.00;99.90
13464;DHT22;6804;48.774;9.174;2024-01-15T01:00:15;2.00;99.90
13464;DHT22;6804;48.774;9.174;2024-01-15T01:02:45;2.00;99.90
13464;DHT22;6804;48.774;9.174;2024-01-15T01:05:34;2.00;99.90
13464;DHT22;6804;48.774;9.174;2024-01-15T01:08:05;2.00;99.90
13464;DHT22;6804;48.774;9.174;2024-01-15T01:10:35;2.00;99.90
13464;DHT22;6804;48.774;9.174;2024-01-15T01:13:05;2.10;99.90
13464;DHT22;6804;48.774;9.174;2024-01-15T01:15:38;2.10;99.90
13464;DHT22;6804;48.774;9.174;2024-01-15T01:18:07;2.10;99.90
13464;DHT22;6804;48.774;9.174;2024-01-15T01:20:36;2.10;99.90
13464;DHT22;6804;48.774;9.174;2024-01-15T01:26:27;2.00;99.90
13464;DHT22;6804;48.774;9.174;2024-01-15T01:29:15;2.00;99.90
13464;DHT22;6804;48.774;9.174;2024-01-15T01:31:46;2.10;99.90
13464;DHT22;6804;48.774;9.174;2024-01-15T01:34:16;2.10;99.90
13464;DHT22;6804;48.774;9.174;2024-01-15T01:36:49;2.10;99.90
13464;DHT22;6804;48.774;9.174;2024-01-15T01:39:17;2.10;99.90
13464;DHT22;6804;48.774;9.174;2024-01-15T01:41:46;2.10;99.90
13464;DHT22;6804;48.774;9.174;2024-01-15T01:44:16;2.10;99.90
13464;DHT22;6804;48.774;9.174;2024-01-15T01:46:43;2.10;99.90
13464;DHT22;6804;48.774;9.174;2024-01-15T01:49:18;2.10;99.90
13464;DHT22;6804;48.774;9.174;2024-01-15T01:51:46;2.10;99.90
13464;DHT22;6804;48.774;9.174;2024-01-15T01:54:18;2.10;99.90
13464;DHT22;6804;48.774;9.174;2024-01-15T01:56:49;2.20;99.90
13464;DHT22;6804;48.774;9.174;2024-01-15T01:59:25;2.30;99.90
13464;DHT22;6804;48.774;9.174;2024-01-15T02:01:57;2.30;99.90
13464;DHT22;6804;48.774;9.174;2024-01-15T02:04:28;2.30;99.90
13464;DHT22;6804;48.774;9.174;2024-01-15T02:06:59;2.40;99.90
13464;DHT22;6804;48.774;9.174;2024-01-15T02:09:28;2.40;99.90
13464;DHT22;6804;48.774;9.174;2024-01-15T02:11:58;2.40;99.90
13464;DHT22;6804;48.774;9.174;2024-01-15T02:14:29;2.40;99.90
13464;DHT22;6804;48.774;9.174;2024-01-15T02:16:56;2.40;99.90
13464;DHT22;6804;48.774;9.174;2024-01-15T02:19:26;2.40;99.90
13464;DHT22;6804;48.774;9.174;2024-01-15T02:21:56;2.40;99.90
13464;DHT22;6804;48.774;9.174;2024-01-15T02:24:25;2.40;99.90
13464;DHT22;6804;48.774;9.174;2024-01-15T02:26:59;2.40;99.90
13464;DHT22;6804;48.774;9.174;2024-01-15T02:29:26;2.50;99.90
13464;DHT22;6804;48.774;9.174;2024-01-15T02:31:55;2.50;99.90
13464;DHT22;6804;48.774;9.174;2024-01-15T02:34:23;2.50;99.90
13464;DHT22;6804;48.774;9.174;2024-01-15T02:36:50;2.50;99.90
13464;DHT22;6804;48.774;9.174;2024-01-15T02:39:18;2.50;99.90
13464;DHT22;6804;48.774;9.174;2024-01-15T02:41:46;2.50;99.90
13464;DHT22;6804;48.774;9.174;2024-01-15T02:44:14;2.50;99.90
13464;DHT22;6804;48.774;9.174;2024-01-15T02:46:42;2.50;99.90
13464;DHT22;6804;48.774;9.174;2024-01-15T02:49:19;2.50;99.90
13464;DHT22;6804;48.774;9.174;2024-01-15T02:51:46;2.50;99.90
13464;DHT22;6804;48.774;9.174;2024-01-15T02:54:17;2.50;99.90
13464;DHT22;6804;48.774;9.174;2024-01-15T02:56:48;2.50;99.90
13464;DHT22;6804;48.774;9.174;2024-01-15T02:59:19;2.50;99.90
13464;DHT22;6804;48.774;9.174;2024-01-15T03:01:49;2.50;99.90
13464;DHT22;6804;48.774;9.174;2024-01-15T03:04:18;2.50;99.90
13464;DHT22;6804;48.774;9.174;2024-01-15T03:06:46;2.50;99.90
13464;DHT22;6804;48.774;9.174;2024-01-15T03:09:16;2.50;99.90
13464;DHT22;6804;48.774;9.174;2024-01-15T03:11:44;2.30;99.90
13464;DHT22;6804;48.774;9.174;2024-01-15T03:14:19;2.30;99.90
13464;DHT22;6804;48.774;9.174;2024-01-15T03:16:46;2.30;99.90
13464;DHT22;6804;48.774;9.174;2024-01-15T03:19:23;2.30;99.90
13464;DHT22;6804;48.774;9.174;2024-01-15T03:21:52;2.30;99.90
13464;DHT22;6804;48.774;9.174;2024-01-15T03:24:21;2.30;99.90
13464;DHT22;6804;48.774;9.174;2024-01-15T03:26:48;2.30;99.90
13464;DHT22;6804;48.774;9.174;2024-01-15T03:29:19;2.30;99.90
13464;DHT22;6804;48.774;9.174;2024-01-15T03:31:49;2.20;99.90
13464;DHT22;6804;48.774;9.174;2024-01-15T03:34:17;2.20;99.90
13464;DHT22;6804;48.774;9.174;2024-01-15T03:36:44;2.10;99.90
13464;DHT22;6804;48.774;9.174;2024-01-15T03:39:12;2.10;99.90
13464;DHT22;6804;48.774;9.174;2024-01-15T03:41:39;2.10;99.90
13464;DHT22;6804;48.774;9.174;2024-01-15T03:44:09;2.10;99.90
13464;DHT22;6804;48.774;9.174;2024-01-15T03:46:39;2.10;99.90
13464;DHT22;6804;48.774;9.174;2024-01-15T03:49:08;2.10;99.90
13464;DHT22;6804;48.774;9.174;2024-01-15T03:51:37;2.10;99.90
13464;DHT22;6804;48.774;9.174;2024-01-15T03:54:07;2.10;99.90
13464;DHT22;6804;48.774;9.174;2024-01-15T03:56:35;2.10;99.90
13464;DHT22;6804;48.774;9.174;2024-01-15T03:59:02;2.10;99.90
13464;DHT22;6804;48.774;9.174;2024-01-15T04:01:30;2.10;99.90
13464;DHT22;6804;48.774;9.174;2024-01-15T04:04:01;2.10;99.90
13464;DHT22;6804;48.774;9.174;2024-01-15T04:06:29;2.10;99.90
13464;DHT22;6804;48.774;9.174;2024-01-15T04:08:56;2.20;99.90
13464;DHT22;6804;48.774;9.174;2024-01-15T04:11:30;2.20;99.90
13464;DHT22;6804;48.774;9.174;2024-01-15T04:14:00;2.20;99.90
13464;DHT22;6804;48.774;9.174;2024-01-15T04:16:27;2.20;99.90
13464;DHT22;6804;48.774;9.174;2024-01-15T04:18:55;2.20;99.90
13464;DHT22;6804;48.774;9.174;2024-01-15T04:21:28;2.30;99.90
13464;DHT22;6804;48.774;9.174;2024-01-15T04:23:58;2.30;99.90
13464;DHT22;6804;48.774;9.174;2024-01-15T04:26:26;2.30;99.90
13464;DHT22;6804;48.774;9.174;2024-01-15T04:29:00;2.30;99.90
13464;DHT22;6804;48.774;9.174;2024-01-15T04:31:28;2.30;99.90
13464;DHT22;6804;48.774;9.174;2024-01-15T04:33:58;2.30;99.90
13464;DHT22;6804;48.774;9.174;2024-01-15T04:36:31;2.30;99.90
13464;DHT22;6804;48.774;9.174;2024-01-15T04:39:02;2.30;99.90
13464;DHT22;6804;48.774;9.174;2024-01-15T04:41:30;2.30;99.90
13464;DHT22;6804;48.774;9.174;2024-01-15T04:43:57;2.40;99.90
13464;DHT22;6804;48.774;9.174;2024-01-15T04:46:48;2.30;99.90
13464;DHT22;6804;48.774;9.174;2024-01-15T04:49:18;2.30;99.90
13464;DHT22;6804;48.774;9.174;2024-01-15T04:51:49;2.30;99.90
13464;DHT22;6804;48.774;9.174;2024-01-15T04:54:24;2.40;99.90
13464;DHT22;6804;48.774;9.174;2024-01-15T04:56:51;2.40;99.90
13464;DHT22;6804;48.774;9.174;2024-01-15T04:59:23;2.40;99.90
13464;DHT22;6804;48.774;9.174;2024-01-15T05:01:51;2.40;99.90
13464;DHT22;6804;48.774;9.174;2024-01-15T05:04:21;2.40;99.90
13464;DHT22;6804;48.774;9.174;2024-01-15T05:07:10;2.40;99.90
13464;DHT22;6804;48.774;9.174;2024-01-15T05:09:44;2.40;99.90
13464;DHT22;6804;48.774;9.174;2024-01-15T05:12:11;2.40;99.90
13464;DHT22;6804;48.774;9.174;2024-01-15T05:14:42;2.40;99.90
13464;DHT22;6804;48.774;9.174;2024-01-15T05:17:28;2.40;99.90
13464;DHT22;6804;48.774;9.174;2024-01-15T05:20:16;2.40;99.90
13464;DHT22;6804;48.774;9.174;2024-01-15T05:22:45;2.40;99.90
13464;DHT22;6804;48.774;9.174;2024-01-15T05:25:13;2.40;99.90
13464;DHT22;6804;48.774;9.174;2024-01-15T05:28:02;2.40;99.90
13464;DHT22;6804;48.774;9.174;2024-01-15T05:30:35;2.40;99.90
13464;DHT22;6804;48.774;9.174;2024-01-15T05:33:04;2.40;99.90
13464;DHT22;6804;48.774;9.174;2024-01-15T05:35:33;2.40;99.90
13464;DHT22;6804;48.774;9.174;2024-01-15T05:38:03;2.40;99.90
13464;DHT22;6804;48.774;9.174;2024-01-15T05:40:33;2.40;99.90
13464;DHT22;6804;48.774;9.174;2024-01-15T05:43:01;2.40;99.90
13464;DHT22;6804;48.774;9.174;2024-01-15T05:45:31;2.40;99.90
13464;DHT22;6804;48.774;9.174;2024-01-15T05:47:58;2.40;99.90
13464;DHT22;6804;48.774;9.174;2024-01-15T05:50:26;2.40;99.90
13464;DHT22;6804;48.774;9.174;2024-01-15T05:52:53;2.40;99.90
13464;DHT22;6804;48.774;9.174;2024-01-15T05:55:25;2.40;99.90
13464;DHT22;6804;48.774;9.174;2024-01-15T05:57:53;2.40;99.90
13464;DHT22;6804;48.774;9.174;2024-01-15T06:00:23;2.40;99.90
13464;DHT22;6804;48.774;9.174;2024-01-15T06:02:55;2.40;99.90
13464;DHT22;6804;48.774;9.174;2024-01-15T06:05:25;2.40;99.90
13464;DHT22;6804;48.774;9.174;2024-01-15T06:07:55;2.40;99.90
13464;DHT22;6804;48.774;9.174;2024-01-15T06:10:22;2.40;99.90
13464;DHT22;6804;48.774;9.174;2024-01-15T06:12:51;2.40;99.90
13464;DHT22;6804;48.774;9.174;2024-01-15T06:15:24;2.50;99.90
13464;DHT22;6804;48.774;9.174;2024-01-15T06:17:54;2.50;99.90
13464;DHT22;6804;48.774;9.174;2024-01-15T06:20:24;2.50;99.90
13464;DHT22;6804;48.774;9.174;2024-01-15T06:22:55;2.60;99.90
13464;DHT22;6804;48.774;9.174;2024-01-15T06:25:24;2.60;99.90
13464;DHT22;6804;48.774;9.174;2024-01-15T06:27:55;2.60;99.90
13464;DHT22;6804;48.774;9.174;2024-01-15T06:30:25;2.60;99.90
13464;DHT22;6804;48.774;9.174;2024-01-15T06:32:53;2.60;99.90
13464;DHT22;6804;48.774;9.174;2024-01-15T06:35:26;2.60;99.90
13464;DHT22;6804;48.774;9.174;2024-01-15T06:37:53;2.60;99.90
13464;DHT22;6804;48.774;9.174;2024-01-15T06:40:24;2.60;99.90
13464;DHT22;6804;48.774;9.174;2024-01-15T06:45:58;2.60;99.90
13464;DHT22;6804;48.774;9.174;2024-01-15T06:48:26;2.50;99.90
13464;DHT22;6804;48.774;9.174;2024-01-15T06:50:54;2.50;99.90
13464;DHT22;6804;48.774;9.174;2024-01-15T06:53:42;2.60;99.90
13464;DHT22;6804;48.774;9.174;2024-01-15T06:56:12;2.50;99.90
13464;DHT22;6804;48.774;9.174;2024-01-15T06:58:47;2.50;99.90
13464;DHT22;6804;48.774;9.174;2024-01-15T07:01:16;2.50;99.90
13464;DHT22;6804;48.774;9.174;2024-01-15T07:04:06;2.50;99.90
13464;DHT22;6804;48.774;9.174;2024-01-15T07:06:37;2.50;99.90
13464;DHT22;6804;48.774;9.174;2024-01-15T07:09:08;2.50;99.90
13464;DHT22;6804;48.774;9.174;2024-01-15T07:11:38;2.50;99.90
13464;DHT22;6804;48.774;9.174;2024-01-15T07:14:07;2.50;99.90
13464;DHT22;6804;48.774;9.174;2024-01-15T07:16:39;2.50;99.90
13464;DHT22;6804;48.774;9.174;2024-01-15T07:19:07;2.50;99.90
13464;DHT22;6804;48.774;9.174;2024-01-15T07:21:56;2.50;99.90
13464;DHT22;6804;48.774;9.174;2024-01-15T07:24:24;2.50;99.90
13464;DHT22;6804;48.774;9.174;2024-01-15T07:27:16;2.50;99.90
13464;DHT22;6804;48.774;9.174;2024-01-15T07:30:05;2.50;99.90
13464;DHT22;6804;48.774;9.174;2024-01-15T07:32:37;2.50;99.90
13464;DHT22;6804;48.774;9.174;2024-01-15T07:35:08;2.60;99.90
13464;DHT22;6804;48.774;9.174;2024-01-15T07:37:36;2.60;99.90
13464;DHT22;6804;48.774;9.174;2024-01-15T07:40:05;2.60;99.90
13464;DHT22;6804;48.774;9.174;2024-01-15T07:42:44;2.60;99.90
13464;DHT22;6804;48.774;9.174;2024-01-15T07:45:27;2.70;99.90
13464;DHT22;6804;48.774;9.174;2024-01-15T07:48:18;2.70;99.90
13464;DHT22;6804;48.774;9.174;2024-01-15T07:50:46;2.80;99.90
13464;DHT22;6804;48.774;9.174;2024-01-15T07:53:16;2.80;99.90
13464;DHT22;6804;48.774;9.174;2024-01-15T07:55:49;2.80;99.90
13464;DHT22;6804;48.774;9.174;2024-01-15T07:58:17;2.80;99.90
13464;DHT22;6804;48.774;9.174;2024-01-15T08:00:44;2.80;99.90
13464;DHT22;6804;48.774;9.174;2024-01-15T08:03:15;2.80;99.90
13464;DHT22;6804;48.774;9.174;2024-01-15T08:06:08;2.80;99.90
13464;DHT22;6804;48.774;9.174;2024-01-15T08:08:37;2.80;99.90
13464;DHT22;6804;48.774;9.174;2024-01-15T08:11:05;2.80;99.90
13464;DHT22;6804;48.774;9.174;2024-01-15T08:16:37;2.80;99.90
13464;DHT22;6804;48.774;9.174;2024-01-15T08:19:06;2.80;99.90
13464;DHT22;6804;48.774;9.174;2024-01-15T08:21:35;2.80;99.90
13464;DHT22;6804;48.774;9.174;2024-01-15T08:24:05;2.90;99.90
13464;DHT22;6804;48.774;9.174;2024-01-15T08:26:33;2.90;99.90
13464;DHT22;6804;48.774;9.174;2024-01-15T08:29:04;2.90;99.90
13464;DHT22;6804;48.774;9.174;2024-01-15T08:31:38;2.90;99.90
13464;DHT22;6804;48.774;9.174;2024-01-15T08:34:07;2.90;99.90
13464;DHT22;6804;48.774;9.174;2024-01-15T08:36:37;2.90;99.90
13464;DHT22;6804;48.774;9.174;2024-01-15T08:39:07;2.90;99.90
13464;DHT22;6804;48.774;9.174;2024-01-15T08:41:37;3.00;99.90
13464;DHT22;6804;48.774;9.174;2024-01-15T08:44:25;3.00;99.90
13464;DHT22;6804;48.774;9.174;2024-01-15T08:46:55;3.00;99.90
13464;DHT22;6804;48.774;9.174;2024-01-15T08:49:22;3.00;99.90
13464;DHT22;6804;48.774;9.174;2024-01-15T08:51:54;3.10;99.90
13464;DHT22;6804;48.774;9.174;2024-01-15T08:54:32;3.20;99.90
13464;DHT22;6804;48.774;9.174;2024-01-15T08:56:59;3.20;99.90
13464;DHT22;6804;48.774;9.174;2024-01-15T08:59:28;3.30;99.90
13464;DHT22;6804;48.774;9.174;2024-01-15T09:01:58;3.30;99.90
13464;DHT22;6804;48.774;9.174;2024-01-15T09:04:30;3.30;99.90
13464;DHT22;6804;48.774;9.174;2024-01-15T09:07:00;3.30;99.90
13464;DHT22;6804;48.774;9.174;2024-01-15T09:09:27;3.30;99.90
13464;DHT22;6804;48.774;9.174;2024-01-15T09:11:58;3.30;99.90
13464;DHT22;6804;48.774;9.174;2024-01-15T09:14:27;3.40;99.90
13464;DHT22;6804;48.774;9.174;2024-01-15T09:17:00;3.40;99.90
13464;DHT22;6804;48.774;9.174;2024-01-15T09:19:29;3.40;99.90
13464;DHT22;6804;48.774;9.174;2024-01-15T09:21:58;3.40;99.90
13464;DHT22;6804;48.774;9.174;2024-01-15T09:27:28;3.30;99.90
13464;DHT22;6804;48.774;9.174;2024-01-15T09:30:01;3.40;99.90
13464;DHT22;6804;48.774;9.174;2024-01-15T09:32:29;3.40;99.90
13464;DHT22;6804;48.774;9.174;2024-01-15T09:35:00;3.40;99.90
13464;DHT22;6804;48.774;9.174;2024-01-15T09:37:31;3.40;99.90
13464;DHT22;6804;48.774;9.174;2024-01-15T09:39:59;3.40;99.90
13464;DHT22;6804;48.774;9.174;2024-01-15T09:42:29;3.50;99.90
13464;DHT22;6804;48.774;9.174;2024-01-15T09:44:58;3.50;99.90
13464;DHT22;6804;48.774;9.174;2024-01-15T09:47:28;3.50;99.90
13464;DHT22;6804;48.774;9.174;2024-01-15T09:49:59;3.60;99.90
13464;DHT22;6804;48.774;9.174;2024-01-15T09:52:32;3.70;99.90
13464;DHT22;6804;48.774;9.174;2024-01-15T09:55:02;3.70;99.90
13464;DHT22;6804;48.774;9.174;2024-01-15T09:57:33;3.70;99.90
13464;DHT22;6804;48.774;9.174;2024-01-15T10:00:04;3.80;99.90
13464;DHT22;6804;48.774;9.174;2024-01-15T10:02:40;3.80;99.90
13464;DHT22;6804;48.774;9.174;2024-01-15T10:05:11;3.80;99.90
13464;DHT22;6804;48.774;9.174;2024-01-15T10:07:43;3.70;99.90
13464;DHT22;6804;48.774;9.174;2024-01-15T10:10:20;3.70;99.90
13464;DHT22;6804;48.774;9.174;2024-01-15T10:12:51;3.70;99.90
13464;DHT22;6804;48.774;9.174;2024-01-15T10:15:22;3.70;99.90
13464;DHT22;6804;48.774;9.174;2024-01-15T10:17:52;3.80;99.90
13464;DHT22;6804;48.774;9.174;2024-01-15T10:20:20;3.70;99.90
13464;DHT22;6804;48.774;9.174;2024-01-15T10:22:50;3.80;99.90
13464;DHT22;6804;48.774;9.174;2024-01-15T10:25:21;3.80;99.90
13464;DHT22;6804;48.774;9.174;2024-01-15T10:28:04;3.80;99.90
13464;DHT22;6804;48.774;9.174;2024-01-15T10:30:33;3.80;99.90
13464;DHT22;6804;48.774;9.174;2024-01-15T10:33:02;3.70;99.90
13464;DHT22;6804;48.774;9.174;2024-01-15T10:35:33;3.70;99.90
13464;DHT22;6804;48.774;9.174;2024-01-15T10:38:01;3.80;99.90
13464;DHT22;6804;48.774;9.174;2024-01-15T10:40:32;3.80;99.90
13464;DHT22;6804;48.774;9.174;2024-01-15T10:43:01;3.80;99.90
13464;DHT22;6804;48.774;9.174;2024-01-15T10:45:31;3.80;99.90
13464;DHT22;6804;48.774;9.174;2024-01-15T10:48:01;3.80;99.90
13464;DHT22;6804;48.774;9.174;2024-01-15T10:50:30;3.80;99.90
13464;DHT22;6804;48.774;9.174;2024-01-15T10:53:03;3.80;99.90
13464;DHT22;6804;48.774;9.174;2024-01-15T10:55:32;3.90;99.90
13464;DHT22;6804;48.774;9.174;2024-01-15T10:58:03;3.90;99.90
13464;DHT22;6804;48.774;9.174;2024-01-15T11:00:34;3.90;99.90
13464;DHT22;6804;48.774;9.174;2024-01-15T11:03:05;3.90;99.90
13464;DHT22;6804;48.774;9.174;2024-01-15T11:05:34;3.90;99.90
13464;DHT22;6804;48.774;9.174;2024-01-15T11:08:06;4.00;99.90
13464;DHT22;6804;48.774;9.174;2024-01-15T11:10:42;4.00;99.90
13464;DHT22;6804;48.774;9.174;2024-01-15T11:13:19;4.00;99.90
13464;DHT22;6804;48.774;9.174;2024-01-15T11:16:03;3.90;99.90
13464;DHT22;6804;48.774;9.174;2024-01-15T11:18:35;4.00;99.90
13464;DHT22;6804;48.774;9.174;2024-01-15T11:21:24;4.00;99.90
13464;DHT22;6804;48.774;9.174;2024-01-15T11:23:56;3.90;99.90
13464;DHT22;6804;48.774;9.174;2024-01-15T11:26:34;3.90;99.90
13464;DHT22;6804;48.774;9.174;2024-01-15T11:29:08;3.90;99.90
13464;DHT22;6804;48.774;9.174;2024-01-15T11:32:02;3.90;99.90
13464;DHT22;6804;48.774;9.174;2024-01-15T11:34:54;4.00;99.90
13464;DHT22;6804;48.774;9.174;2024-01-15T11:37:25;4.00;99.90
13464;DHT22;6804;48.774;9.174;2024-01-15T11:40:02;4.00;99.90
13464;DHT22;6804;48.774;9.174;2024-01-15T11:42:35;4.00;99.90
13464;DHT22;6804;48.774;9.174;2024-01-15T11:45:05;4.00;99.90
13464;DHT22;6804;48.774;9.174;2024-01-15T11:48:11;4.00;99.90
13464;DHT22;6804;48.774;9.174;2024-01-15T11:50:42;4.00;99.90
13464;DHT22;6804;48.774;9.174;2024-01-15T11:53:18;4.00;99.90
13464;DHT22;6804;48.774;9.174;2024-01-15T11:55:53;3.90;99.90
13464;DHT22;6804;48.774;9.174;2024-01-15T11:58:25;3.90;99.90
13464;DHT22;6804;48.774;9.174;2024-01-15T12:00:59;3.80;99.90
13464;DHT22;6804;48.774;9.174;2024-01-15T12:03:33;3.80;99.90
13464;DHT22;6804;48.774;9.174;2024-01-15T12:06:01;3.80;99.90
13464;DHT22;6804;48.774;9.174;2024-01-15T12:08:34;3.70;99.90
13464;DHT22;6804;48.774;9.174;2024-01-15T12:11:07;3.70;99.90
13464;DHT22;6804;48.774;9.174;2024-01-15T12:13:42;3.70;99.90
13464;DHT22;6804;48.774;9.174;2024-01-15T12:16:12;3.70;99.90
13464;DHT22;6804;48.774;9.174;2024-01-15T12:18:59;3.70;99.90
13464;DHT22;6804;48.774;9.174;2024-01-15T12:21:32;3.70;99.90
13464;DHT22;6804;48.774;9.174;2024-01-15T12:24:19;3.70;99.90
13464;DHT22;6804;48.774;9.174;2024-01-15T12:26:53;3.60;99.90
13464;DHT22;6804;48.774;9.174;2024-01-15T12:29:25;3.60;99.90
13464;DHT22;6804;48.774;9.174;2024-01-15T12:31:58;3.50;99.90
13464;DHT22;6804;48.774;9.174;2024-01-15T12:34:45;3.60;99.90
13464;DHT22;6804;48.774;9.174;2024-01-15T12:37:14;3.50;99.90
13464;DHT22;6804;48.774;9.174;2024-01-15T12:39:44;3.50;99.90
13464;DHT22;6804;48.774;9.174;2024-01-15T12:42:30;3.50;99.90
13464;DHT22;6804;48.774;9.174;2024-01-15T12:45:08;3.50;99.90
13464;DHT22;6804;48.774;9.174;2024-01-15T12:47:44;3.50;99.90
13464;DHT22;6804;48.774;9.174;2024-01-15T12:50:14;3.50;99.90
13464;DHT22;6804;48.774;9.174;2024-01-15T12:52:43;3.40;99.90
13464;DHT22;6804;48.774;9.174;2024-01-15T12:55:17;3.40;99.90
13464;DHT22;6804;48.774;9.174;2024-01-15T12:57:47;3.50;99.90
13464;DHT22;6804;48.774;9.174;2024-01-15T13:00:16;3.50;99.90
13464;DHT22;6804;48.774;9.174;2024-01-15T13:05:58;3.50;99.90
13464;DHT22;6804;48.774;9.174;2024-01-15T13:08:44;3.60;99.90
13464;DHT22;6804;48.774;9.174;2024-01-15T13:11:12;3.60;99.90
13464;DHT22;6804;48.774;9.174;2024-01-15T13:13:40;3.60;99.90
13464;DHT22;6804;48.774;9.174;2024-01-15T13:16:11;3.60;99.90
13464;DHT22;6804;48.774;9.174;2024-01-15T13:18:39;3.50;99.90
13464;DHT22;6804;48.774;9.174;2024-01-15T13:21:08;3.50;99.90
13464;DHT22;6804;48.774;9.174;2024-01-15T13:23:36;3.50;99.90
13464;DHT22;6804;48.774;9.174;2024-01-15T13:26:05;3.50;99.90
13464;DHT22;6804;48.774;9.174;2024-01-15T13:28:36;3.50;99.90
13464;DHT22;6804;48.774;9.174;2024-01-15T13:31:06;3.50;99.90
13464;DHT22;6804;48.774;9.174;2024-01-15T13:33:53;3.50;99.90
13464;DHT22;6804;48.774;9.174;2024-01-15T13:36:28;3.60;99.90
13464;DHT22;6804;48.774;9.174;2024-01-15T13:38:59;3.60;99.90
13464;DHT22;6804;48.774;9.174;2024-01-15T13:41:29;3.60;99.90
13464;DHT22;6804;48.774;9.174;2024-01-15T13:43:57;3.60;99.90
13464;DHT22;6804;48.774;9.174;2024-01-15T13:46:26;3.70;99.90
13464;DHT22;6804;48.774;9.174;2024-01-15T13:48:55;3.70;99.90
13464;DHT22;6804;48.774;9.174;2024-01-15T13:51:27;3.70;99.90
13464;DHT22;6804;48.774;9.174;2024-01-15T13:54:00;3.70;99.90
13464;DHT22;6804;48.774;9.174;2024-01-15T13:56:30;3.80;99.90
13464;DHT22;6804;48.774;9.174;2024-01-15T13:58:59;3.80;99.90
13464;DHT22;6804;48.774;9.174;2024-01-15T14:01:31;3.80;99.90
13464;DHT22;6804;48.774;9.174;2024-01-15T14:04:01;3.80;99.90
13464;DHT22;6804;48.774;9.174;2024-01-15T14:06:35;3.90;99.90
13464;DHT22;6804;48.774;9.174;2024-01-15T14:09:04;3.80;99.90
13464;DHT22;6804;48.774;9.174;2024-01-15T14:11:39;3.80;99.90
13464;DHT22;6804;48.774;9.174;2024-01-15T14:14:10;3.80;99.90
13464;DHT22;6804;48.774;9.174;2024-01-15T14:16:40;3.90;99.90
13464;DHT22;6804;48.774;9.174;2024-01-15T14:19:07;3.80;99.90
13464;DHT22;6804;48.774;9.174;2024-01-15T14:21:39;3.90;99.90
13464;DHT22;6804;48.774;9.174;2024-01-15T14:24:07;3.80;99.90
13464;DHT22;6804;48.774;9.174;2024-01-15T14:26:53;3.80;99.90
13464;DHT22;6804;48.774;9.174;2024-01-15T14:29:25;3.90;99.90
13464;DHT22;6804;48.774;9.174;2024-01-15T14:31:55;3.90;99.90
13464;DHT22;6804;48.774;9.174;2024-01-15T14:34:23;3.80;99.90
13464;DHT22;6804;48.774;9.174;2024-01-15T14:36:57;3.80;99.90
13464;DHT22;6804;48.774;9.174;2024-01-15T14:39:30;3.60;99.90
13464;DHT22;6804;48.774;9.174;2024-01-15T14:42:01;3.50;99.90
13464;DHT22;6804;48.774;9.174;2024-01-15T14:44:29;3.40;99.90
13464;DHT22;6804;48.774;9.174;2024-01-15T14:47:00;3.30;99.90
13464;DHT22;6804;48.774;9.174;2024-01-15T14:49:29;3.30;99.90
13464;DHT22;6804;48.774;9.174;2024-01-15T14:51:59;3.30;99.90
13464;DHT22;6804;48.774;9.174;2024-01-15T14:54:29;3.30;99.90
13464;DHT22;6804;48.774;9.174;2024-01-15T14:56:59;3.30;99.90
13464;DHT22;6804;48.774;9.174;2024-01-15T14:59:27;3.20;99.90
13464;DHT22;6804;48.774;9.174;2024-01-15T15:01:59;3.10;99.90
13464;DHT22;6804;48.774;9.174;2024-01-15T15:04:26;3.10;99.90
13464;DHT22;6804;48.774;9.174;2024-01-15T15:07:00;3.00;99.90
13464;DHT22;6804;48.774;9.174;2024-01-15T15:09:27;2.90;99.90
13464;DHT22;6804;48.774;9.174;2024-01-15T15:11:58;2.90;99.90
13464;DHT22;6804;48.774;9.174;2024-01-15T15:14:26;2.90;99.90
13464;DHT22;6804;48.774;9.174;2024-01-15T15:16:53;2.90;99.90
13464;DHT22;6804;48.774;9.174;2024-01-15T15:19:24;2.90;99.90
13464;DHT22;6804;48.774;9.174;2024-01-15T15:21:56;3.00;99.90
13464;DHT22;6804;48.774;9.174;2024-01-15T15:24:27;3.00;99.90
13464;DHT22;6804;48.774;9.174;2024-01-15T15:26:59;2.90;99.90
13464;DHT22;6804;48.774;9.174;2024-01-15T15:29:27;3.00;99.90
13464;DHT22;6804;48.774;9.174;2024-01-15T15:31:58;3.00;99.90
13464;DHT22;6804;48.774;9.174;2024-01-15T15:34:28;3.00;99.90
13464;DHT22;6804;48.774;9.174;2024-01-15T15:36:55;3.00;99.90
13464;DHT22;6804;48.774;9.174;2024-01-15T15:39:24;2.90;99.90
13464;DHT22;6804;48.774;9.174;2024-01-15T15:42:00;3.00;99.90
13464;DHT22;6804;48.774;9.174;2024-01-15T15:44:31;3.00;99.90
13464;DHT22;6804;48.774;9.174;2024-01-15T15:47:23;3.00;99.90
13464;DHT22;6804;48.774;9.174;2024-01-15T15:49:52;3.10;99.90
13464;DHT22;6804;48.774;9.174;2024-01-15T15:52:23;3.10;99.90
13464;DHT22;6804;48.774;9.174;2024-01-15T15:54:52;3.10;99.90
13464;DHT22;6804;48.774;9.174;2024-01-15T15:57:21;3.10;99.90
13464;DHT22;6804;48.774;9.174;2024-01-15T15:59:53;3.20;99.90
13464;DHT22;6804;48.774;9.174;2024-01-15T16:02:23;3.20;99.90
13464;DHT22;6804;48.774;9.174;2024-01-15T16:04:51;3.20;99.90
13464;DHT22;6804;48.774;9.174;2024-01-15T16:07:25;3.20;99.90
13464;DHT22;6804;48.774;9.174;2024-01-15T16:09:56;3.20;99.90
13464;DHT22;6804;48.774;9.174;2024-01-15T16:12:29;3.20;99.90
13464;DHT22;6804;48.774;9.174;2024-01-15T16:15:01;3.20;99.90
13464;DHT22;6804;48.774;9.174;2024-01-15T16:17:32;3.20;99.90
13464;DHT22;6804;48.774;9.174;2024-01-15T16:20:00;3.20;99.90
13464;DHT22;6804;48.774;9.174;2024-01-15T16:22:47;3.20;99.90
13464;DHT22;6804;48.774;9.174;2024-01-15T16:25:21;3.10;99.90
13464;DHT22;6804;48.774;9.174;2024-01-15T16:27:51;3.20;99.90
13464;DHT22;6804;48.774;9.174;2024-01-15T16:30:19;3.20;99.90
13464;DHT22;6804;48.774;9.174;2024-01-15T16:32:50;3.20;99.90
13464;DHT22;6804;48.774;9.174;2024-01-15T16:35:25;3.20;99.90
13464;DHT22;6804;48.774;9.174;2024-01-15T16:37:52;3.20;99.90
13464;DHT22;6804;48.774;9.174;2024-01-15T16:40:23;3.20;99.90
13464;DHT22;6804;48.774;9.174;2024-01-15T16:42:55;3.20;99.90
13464;DHT22;6804;48.774;9.174;2024-01-15T16:45:24;3.20;99.90
13464;DHT22;6804;48.774;9.174;2024-01-15T16:47:54;3.20;99.90